ADDS METAR Data INFO
IDs: Format: Raw Decoded Include TAF

Data at: 0506 UTC 18 Feb 2018

KSBS 180454Z AUTO 00000KT 10SM SCT110 M05/M10 A2992 RMK AO1 T10481105
KSBS 180430Z AUTO 00000KT 10SM CLR M06/M11 A2994 RMK AO1 T10601107
KSBS 180412Z AUTO 09003KT 10SM CLR M06/M11 A2995 RMK AO1 T10591106
KSBS 180354Z AUTO 00000KT 10SM CLR M05/M10 A2996 RMK AO1 T10541104
KSBS 180330Z AUTO 12007KT 10SM CLR M06/M10 A2996 RMK AO1 T10581104
KSBS 180312Z AUTO 11004KT 10SM CLR M04/M10 A2997 RMK AO1 T10401098
KSBS 180254Z AUTO 08007KT 10SM CLR M03/M10 A2999 RMK AO1 T10341105
KSBS 180230Z AUTO 15004KT 10SM CLR M03/M10 A3000 RMK AO1 T10271100
KSBS 180212Z AUTO 11004KT 10SM CLR M03/M10 A3000 RMK AO1 T10301099
KSBS 180154Z AUTO 10004KT 10SM CLR M02/M09 A3000 RMK AO1 T10211095
KSBS 180130Z AUTO 09006KT 10SM CLR M02/M10 A3000 RMK AO1 T10161096
KSBS 180112Z AUTO 00000KT 10SM CLR M01/M10 A3001 RMK AO1 T10151103
KSBS 180054Z AUTO 00000KT 10SM CLR 00/M11 A3000 RMK AO1 T10031110
KSBS 180030Z AUTO 00000KT 10SM CLR 02/M11 A3000 RMK AO1 T00181112
KSBS 180012Z AUTO 00000KT 10SM CLR 02/M11 A3001 RMK AO1 T00151106
KSBS 172354Z AUTO 00000KT 10SM CLR 02/M11 A3002 RMK AO1 T00211108
KSBS 172330Z AUTO 13003KT 10SM CLR 02/M10 A3002 RMK AO1 T00211105
KSBS 172312Z AUTO 00000KT 10SM CLR 03/M11 A3002 RMK AO1 T00251110
KSBS 172254Z AUTO 00000KT 10SM CLR 02/M11 A3002 RMK AO1 T00201108
KSBS 172230Z AUTO 00000KT 10SM CLR 02/M11 A3004 RMK AO1 T00201111
KSBS 172212Z AUTO 00000KT 10SM CLR 02/M11 A3005 RMK AO1 T00181112
KSBS 172154Z AUTO 00000KT 10SM CLR 02/M11 A3005 RMK AO1 T00191115
KSBS 172130Z AUTO 00000KT 10SM CLR 02/M12 A3006 RMK AO1 T00201117
KSBS 172112Z AUTO 29004KT 10SM CLR 02/M11 A3006 RMK AO1 T00161113
KSBS 172053Z AUTO 00000KT 10SM CLR 02/M12 A3007 RMK AO1 T00171117
KSBS 172030Z AUTO 00000KT 10SM CLR 02/M11 A3008 RMK AO1 T00161113
KSBS 172012Z AUTO 00000KT 10SM CLR 01/M12 A3010 RMK AO1 T00111117
KSBS 171950Z AUTO 00000KT 10SM CLR 01/M11 A3012 RMK AO1 T00071114
KSBS 171932Z AUTO 00000KT 10SM CLR 01/M11 A3014 RMK AO1 T00061114
KSBS 171912Z AUTO 15003KT 10SM CLR 00/M11 A3015 RMK AO1 T00031109
KSBS 171854Z AUTO 14004KT 10SM CLR 00/M11 A3015 RMK AO1 T00011108
KSBS 171830Z AUTO 00000KT 10SM CLR 01/M12 A3018 RMK AO1 T00051119
KSBS 171812Z AUTO 00000KT 10SM CLR 00/M12 A3018 RMK AO1 T00001121
KSBS 171754Z AUTO 00000KT 10SM CLR 00/M12 A3018 RMK AO1 T00001117
KSBS 171730Z AUTO 00000KT 10SM CLR M01/M12 A3018 RMK AO1 T10121123
KSBS 171712Z AUTO 00000KT 10SM CLR M02/M12 A3019 RMK AO1 T10181122
KSBS 171654Z AUTO 00000KT 10SM CLR M01/M11 A3019 RMK AO1 T10151110
KSBS 171630Z AUTO 00000KT 10SM CLR M02/M10 A3019 RMK AO1 T10251096
KSBS 171612Z AUTO 00000KT 10SM CLR M04/M10 A3019 RMK AO1 T10421103
KSBS 171553Z AUTO 00000KT 10SM BKN050 M04/M11 A3019 RMK AO1 T10361113
KSBS 171530Z AUTO 00000KT 10SM OVC050 M04/M11 A3018 RMK AO1 T10451111
KSBS 171512Z AUTO 13003KT 10SM OVC050 M06/M10 A3018 RMK AO1 T10571105
KSBS 171454Z AUTO 13004KT 10SM OVC050 M06/M11 A3018 RMK AO1 T10571109
KSBS 171430Z AUTO 08003KT 10SM OVC050 M05/M11 A3017 RMK AO1 T10521114
KSBS 171412Z AUTO 06003KT 10SM OVC050 M06/M11 A3017 RMK AO1 T10571109
KSBS 171353Z AUTO 00000KT 10SM OVC050 M05/M12 A3016 RMK AO1 T10511117
KSBS 171330Z AUTO 00000KT 10SM BKN050 OVC065 M05/M11 A3016 RMK AO1 T10531112
KSBS 171312Z AUTO 00000KT 10SM BKN055 OVC065 M05/M12 A3016 RMK AO1 T10511117
KSBS 171254Z AUTO 00000KT 10SM OVC060 M04/M12 A3015 RMK AO1 T10451122
KSBS 171230Z AUTO 00000KT 10SM OVC060 M05/M12 A3014 RMK AO1 T10461120
KSBS 171212Z AUTO 00000KT 10SM OVC060 M05/M12 A3013 RMK AO1 T10501116
KSBS 171155Z AUTO 24005KT 10SM OVC060 M05/M12 A3012 RMK AO1 T10471118 11045 21072
KSBS 171131Z AUTO 25004KT 10SM OVC060 M05/M12 A3011 RMK AO1 T10491117
KSBS 171113Z AUTO 00000KT 10SM OVC060 M05/M11 A3010 RMK AO1 T10481114
KSBS 171054Z AUTO 00000KT 10SM OVC060 M05/M11 A3010 RMK AO1 T10521111
KSBS 171030Z AUTO 11003KT 10SM OVC050 M06/M11 A3010 RMK AO1 T10561106
KSBS 171012Z AUTO 13005KT 10SM OVC050 M05/M11 A3009 RMK AO1 T10551107
KSBS 170954Z AUTO 10006KT 10SM OVC050 M06/M10 A3008 RMK AO1 T10601100
KSBS 170930Z AUTO 11004KT 10SM OVC060 M05/M10 A3008 RMK AO1 T10551103
KSBS 170912Z AUTO 00000KT 10SM OVC060 M05/M10 A3007 RMK AO1 T10531105
KSBS 170854Z AUTO 00000KT 10SM OVC060 M05/M11 A3007 RMK AO1 T10531109
KSBS 170830Z AUTO 10003KT 10SM BKN060 OVC070 M06/M10 A3006 RMK AO1 T10631105
KSBS 170812Z AUTO 00000KT 10SM OVC060 M07/M10 A3005 RMK AO1 T10721102
KSBS 170753Z AUTO 11003KT 10SM OVC060 M07/M10 A3005 RMK AO1 T10701101
KSBS 170735Z AUTO 12005KT 10SM OVC060 M06/M10 A3004 RMK AO1 T10651105
KSBS 170711Z AUTO 00000KT 10SM OVC060 M07/M10 A3003 RMK AO1 T10701102
KSBS 170653Z AUTO 00000KT 10SM OVC060 M07/M10 A3002 RMK AO1 T10681097
KSBS 170635Z AUTO 09003KT 10SM OVC060 M06/M10 A3002 RMK AO1 T10621100
KSBS 170612Z AUTO 00000KT 10SM OVC070 M07/M10 A3001 RMK AO1 T10671101
KSBS 170553Z AUTO 00000KT 10SM OVC070 M07/M10 A3001 RMK AO1 T10701099
KSBS 170530Z AUTO 14004KT 10SM OVC070 M06/M10 A3000 RMK AO1 T10611104
KSBS 170512Z AUTO 00000KT 10SM OVC070 M07/M11 A3000 RMK AO1 T10701106
KSBS 170453Z AUTO 00000KT 10SM OVC070 M07/M10 A3000 RMK AO1 T10671101
KSBS 170430Z AUTO 00000KT 10SM OVC070 M07/M11 A3000 RMK AO1 T10661111
KSBS 170412Z AUTO 00000KT 10SM OVC070 M06/M10 A2999 RMK AO1 T10631105
KSBS 170353Z AUTO 16005KT 10SM OVC080 M07/M11 A3000 RMK AO1 T10671107
KSBS 170335Z AUTO 13004KT 10SM SCT080 BKN100 OVC120 M06/M11 A2998 RMK AO1 T10581109
KSBS 170311Z AUTO 00000KT 10SM SCT065 OVC085 M05/M11 A2999 RMK AO1 T10551110
KSBS 170251Z AUTO 10004KT 10SM SCT075 OVC085 M06/M11 A2999 RMK AO1 T10641110
KSBS 170233Z AUTO 07003KT 10SM SCT065 OVC075 M06/M10 A3000 RMK AO1 T10631104
KSBS 170211Z AUTO 00000KT 10SM BKN070 BKN080 BKN100 M06/M11 A3000 RMK AO1 T10581113
KSBS 170153Z AUTO 00000KT 10SM BKN070 BKN090 BKN110 M06/M11 A3000 RMK AO1 T10631109
KSBS 170135Z AUTO 00000KT 10SM SCT080 OVC090 M06/M11 A3000 RMK AO1 T10641108
KSBS 170112Z AUTO 00000KT 10SM OVC090 M06/M11 A2999 RMK AO1 T10621110
KSBS 170052Z AUTO 00000KT 10SM OVC080 M06/M11 A2999 RMK AO1 T10581106
KSBS 170034Z AUTO 00000KT 10SM OVC080 M06/M11 A2999 RMK AO1 T10561110
KSBS 170011Z AUTO 00000KT 10SM BKN080 OVC100 M05/M11 A3000 RMK AO1 T10551107
KSBS 162352Z AUTO 00000KT 10SM OVC100 M05/M11 A3000 RMK AO1 T10521107
KSBS 162335Z AUTO 00000KT 10SM OVC100 M05/M11 A3001 RMK AO1 T10521106
KSBS 162311Z AUTO 00000KT 10SM OVC100 M04/M11 A3002 RMK AO1 T10451111
KSBS 162252Z AUTO 00000KT 10SM OVC100 M03/M12 A3002 RMK AO1 T10351116
KSBS 162235Z AUTO 00000KT 10SM OVC100 M04/M12 A3003 RMK AO1 T10431121
KSBS 162212Z AUTO 00000KT 10SM BKN100 M06/M12 A3005 RMK AO1 T10601121
KSBS 162152Z AUTO 00000KT 10SM CLR M06/M13 A3005 RMK AO1 T10631127
KSBS 162134Z AUTO 00000KT 10SM CLR M06/M12 A3006 RMK AO1 T10651125
KSBS 162111Z AUTO 00000KT 10SM CLR M07/M13 A3007 RMK AO1 T10661127
KSBS 162052Z AUTO 00000KT 10SM CLR M06/M13 A3008 RMK AO1 T10581127
KSBS 162034Z AUTO 00000KT 10SM CLR M07/M13 A3010 RMK AO1 T10701131
KSBS 162011Z AUTO 00000KT 10SM CLR M08/M14 A3013 RMK AO1 T10821136
KSBS 161953Z AUTO 00000KT 10SM CLR M08/M14 A3015 RMK AO1 T10851140
KSBS 161929Z AUTO 00000KT 10SM CLR M08/M14 A3017 RMK AO1 T10831141
KSBS 161912Z AUTO 00000KT 10SM CLR M10/M15 A3018 RMK AO1 T10961151
KSBS 161853Z AUTO 00000KT 10SM CLR M10/M15 A3019 RMK AO1 T10981147
KSBS 161830Z AUTO 00000KT 10SM CLR M11/M15 A3021 RMK AO1 T11151154
KSBS 161812Z AUTO 00000KT 10SM CLR M11/M14 A3021 RMK AO1 T11131139
KSBS 161753Z AUTO 00000KT 10SM CLR M12/M15 A3022 RMK AO1 T11251146
KSBS 161730Z AUTO 00000KT 10SM CLR A3024 RMK AO1
KSBS 161712Z AUTO 00000KT 10SM CLR M14/M16 A3024 RMK AO1 T11411162